Woodland Hills, UT

10:46 AM MDT on August 20, 2014 (GMT -0600)
Mountain Bench | Change Station
CLOSE
Current Station
Personal Weather Station
Location: Woodland Hills, UT
Elevation: 5720 ft
Nearby Weather Stations

Elev 5720 ft 40.01 °N, 111.65 °W | Updated 16 minutes ago

Mostly Cloudy
Mostly Cloudy
62.6 °F
Feels Like 62.6 °F
N
0.0
Wind Variable Wind from East
Gusts 0.0 mph

Today
High -- | Low -- °F
--% Chance of Precip.
Yesterday
High -- | Low -- °F
Precip. -- in
6:43 AM 8:16 PM
Waning Crescent, 20% visible
Pressure 30.07 in
Visibility 10.0 miles
Clouds Few 3000 ft
Scattered Clouds 6000 ft
Mostly Cloudy 11000 ft
Dew Point 58 °F
Humidity 86%
Rainfall 0.15 in
Snow Depth 1 in
UV 2 out of 12
Pollen 7.00 out of 12
Air Quality Not available.
Flu Activity Not available.
METAR KPVU 201550Z 21004KT 10SM VCSH FEW030 SCT060 BKN110 17/14 A3007

More Conditions Fewer Conditions

Pressure 30.07 in
Visibility 10.0 miles
Clouds Few 3000 ft
Scattered Clouds 6000 ft
Mostly Cloudy 11000 ft
Dew Point 58 °F
Humidity 86%
Rainfall 0.15 in
Snow Depth 1 in
UV 2 out of 12
Pollen 7.00 out of 12
Air Quality Not available.
Flu Activity Not available.
METAR KPVU 201550Z 21004KT 10SM VCSH FEW030 SCT060 BKN110 17/14 A3007

More Conditions Fewer Conditions

10-Day Weather Forecast

Almanac

Astronomy

Aug. 20, 2014 Rise Set
Actual Time 6:43 AM MDT 8:16 PM MDT
Civil Twilight 6:14 AM MDT 8:44 PM MDT
Nautical Twilight 5:39 AM MDT 9:19 PM MDT
Astronomical Twilight 5:03 AM MDT 9:55 PM MDT
Moon 2:26 AM MDT 5:03 PM MDT
Length of Visible Light 14h 30m
Length of Day
13h 33m
Tomorrow will be 2m 24s shorter.
Waning Crescent, 20% of the Moon is Illuminated
Today
Waning Crescent
Aug 25
New
Sep 2
First Quarter
Sep 8
Full
Sep 15
Last Quarter

Today's Extremes

State Highs State Lows

Community

WunderPhotos

Upload Photos

1,745,691 photos uploaded!

WunderBlogs® & News

Nearby

Snow Depth

Station Depth Elevation
Cascade Mountain 1 in 7768 ft
Clear Creek #2 1 in 8300 ft
Strawberry Divide 0 in 8400 ft
Daniels-Strawberry 1 in 8000 ft
Snowbird 0 in 9640 ft

Earthquake Activity

City Distance Mag. Time & Date
No recent earthquake activity has been reported nearby.
Minimum magnitude displayed is 2.5.

Coastal Water Temperatures

Place Temperature
No Stations Reporting

Nearby Weather Stations